createdAt,value
2018-03-29T00:00:22.038Z,0.99
2018-03-29T00:02:50.439Z,1.05
2018-03-29T00:05:20.517Z,0.98
2018-03-29T00:07:48.973Z,0.97
2018-03-29T00:10:17.410Z,0.97
2018-03-29T00:12:46.047Z,0.94
2018-03-29T00:15:14.445Z,1.01
2018-03-29T00:17:42.909Z,0.97
2018-03-29T00:20:11.346Z,0.92
2018-03-29T00:22:39.735Z,0.97
2018-03-29T00:25:08.104Z,0.96
2018-03-29T00:27:36.544Z,0.94
2018-03-29T00:30:04.888Z,0.94
2018-03-29T00:32:33.273Z,0.93
2018-03-29T00:35:01.865Z,0.92
2018-03-29T00:37:30.211Z,0.93
2018-03-29T00:39:58.620Z,0.96
2018-03-29T00:42:27.611Z,0.94
2018-03-29T00:44:56.726Z,0.96
2018-03-29T00:47:25.151Z,1.00
2018-03-29T00:49:53.749Z,0.95
2018-03-29T00:52:22.221Z,1.00
2018-03-29T00:54:50.751Z,0.98
2018-03-29T00:57:19.462Z,1.00
2018-03-29T00:59:47.955Z,0.95
2018-03-29T01:02:16.425Z,1.01
2018-03-29T01:04:44.942Z,0.96
2018-03-29T01:07:13.559Z,1.04
2018-03-29T01:09:42.059Z,1.05
2018-03-29T01:12:12.024Z,1.01
2018-03-29T01:14:40.398Z,0.99
2018-03-29T01:17:08.766Z,0.88
2018-03-29T01:19:37.370Z,1.00
2018-03-29T01:22:05.687Z,0.95
2018-03-29T01:24:34.221Z,0.87
2018-03-29T01:27:02.613Z,0.88
2018-03-29T01:29:30.971Z,0.91
2018-03-29T01:31:59.366Z,0.88
2018-03-29T01:34:29.417Z,0.96
2018-03-29T01:36:57.950Z,0.91
2018-03-29T01:39:26.337Z,0.95
2018-03-29T01:41:55.619Z,0.99
2018-03-29T01:44:24.142Z,0.96
2018-03-29T01:46:52.638Z,0.91
2018-03-29T01:49:21.388Z,0.98
2018-03-29T01:51:49.773Z,0.99
2018-03-29T01:54:18.172Z,0.96
2018-03-29T01:56:47.165Z,1.05
2018-03-29T01:59:15.566Z,1.04
2018-03-29T02:01:44.025Z,1.02
2018-03-29T02:04:14.086Z,1.04
2018-03-29T02:06:42.433Z,1.12
2018-03-29T02:09:10.793Z,1.05
2018-03-29T02:11:39.169Z,1.04
2018-03-29T02:14:07.554Z,1.07
2018-03-29T02:16:35.976Z,1.05
2018-03-29T02:19:04.721Z,1.06
2018-03-29T02:21:33.085Z,1.06
2018-03-29T02:24:01.413Z,1.19
2018-03-29T02:26:31.378Z,1.18
2018-03-29T02:28:59.768Z,1.16
2018-03-29T02:31:28.135Z,1.12
2018-03-29T02:33:56.592Z,1.12
2018-03-29T02:36:24.977Z,1.11
2018-03-29T02:38:53.350Z,1.14
2018-03-29T02:41:22.105Z,1.12
2018-03-29T02:43:50.482Z,1.16
2018-03-29T02:46:18.826Z,1.12
2018-03-29T02:48:48.067Z,1.14
2018-03-29T02:51:16.433Z,1.14
2018-03-29T02:53:44.889Z,1.15
2018-03-29T02:56:13.287Z,1.20
2018-03-29T02:58:41.677Z,1.17
2018-03-29T03:01:10.038Z,1.21
2018-03-29T03:03:38.426Z,1.27
2018-03-29T03:06:06.785Z,1.18
2018-03-29T03:08:35.218Z,1.23
2018-03-29T03:11:03.815Z,1.27
2018-03-29T03:13:32.350Z,1.33
2018-03-29T03:16:00.711Z,1.31
2018-03-29T03:18:29.090Z,1.40
2018-03-29T03:20:58.003Z,1.44
2018-03-29T03:23:26.398Z,1.36
2018-03-29T03:25:54.787Z,1.37
2018-03-29T03:28:23.135Z,1.32
2018-03-29T03:30:51.475Z,1.38
2018-03-29T03:33:19.868Z,1.44
2018-03-29T03:35:48.494Z,1.43
2018-03-29T03:38:16.893Z,1.41
2018-03-29T03:40:45.824Z,1.47
2018-03-29T03:43:14.233Z,1.43
2018-03-29T03:45:43.929Z,1.37
2018-03-29T03:48:12.598Z,1.48
2018-03-29T03:50:41.304Z,1.47
2018-03-29T03:53:09.755Z,1.40
2018-03-29T03:55:39.014Z,1.41
2018-03-29T05:20:06.028Z,1.29
2018-03-29T05:22:34.387Z,1.28
2018-03-29T05:25:02.735Z,1.33
2018-03-29T05:27:32.650Z,1.29
2018-03-29T05:30:01.026Z,1.27
2018-03-29T05:32:29.466Z,1.30
2018-03-29T05:34:59.210Z,1.26
2018-03-29T05:37:27.805Z,1.35
2018-03-29T05:39:56.280Z,1.40
2018-03-29T05:42:26.576Z,1.43
2018-03-29T05:44:54.922Z,1.36
2018-03-29T05:47:23.368Z,1.46
2018-03-29T05:49:51.851Z,1.55
2018-03-29T05:52:20.303Z,1.58
2018-03-29T05:54:48.697Z,1.53
2018-03-29T05:57:17.690Z,1.53
2018-03-29T05:59:46.072Z,1.53
2018-03-29T06:02:14.447Z,1.49
2018-03-29T06:04:42.867Z,1.56
2018-03-29T06:07:11.517Z,1.62
2018-03-29T06:09:39.898Z,1.76
2018-03-29T06:12:08.472Z,1.72
2018-03-29T06:14:42.395Z,1.80
2018-03-29T06:20:18.182Z,1.69
2018-03-29T06:22:46.768Z,1.61
2018-03-29T06:25:15.219Z,1.53
2018-03-29T06:27:43.940Z,1.57
2018-03-29T06:30:12.484Z,1.53
2018-03-29T06:32:41.040Z,1.71
2018-03-29T06:35:09.400Z,1.63
2018-03-29T06:37:38.865Z,1.75
2018-03-29T06:40:08.037Z,1.79
2018-03-29T06:42:36.374Z,1.70
2018-03-29T06:45:04.951Z,1.93
2018-03-29T06:47:33.325Z,2.02
2018-03-29T06:50:01.710Z,1.87
2018-03-29T06:52:30.894Z,1.90
2018-03-29T06:54:59.657Z,1.89
2018-03-29T06:57:28.042Z,1.95
2018-03-29T06:59:57.985Z,2.12
2018-03-29T07:02:26.370Z,1.84
2018-03-29T07:04:54.745Z,1.78
2018-03-29T07:07:23.859Z,1.65
2018-03-29T07:09:52.293Z,1.77
2018-03-29T07:12:20.905Z,1.79
2018-03-29T07:14:49.351Z,1.83
2018-03-29T07:17:17.786Z,1.79
2018-03-29T07:19:46.228Z,1.86
2018-03-29T07:22:14.623Z,1.81
2018-03-29T07:24:43.398Z,1.69
2018-03-29T07:27:12.827Z,1.68
2018-03-29T07:29:41.499Z,1.56
2018-03-29T07:32:10.600Z,1.49
2018-03-29T07:34:38.950Z,1.56
2018-03-29T07:37:07.908Z,1.60
2018-03-29T07:39:36.258Z,1.57
2018-03-29T07:42:04.610Z,1.59
2018-03-29T07:44:33.005Z,1.52
2018-03-29T07:47:02.344Z,1.55
2018-03-29T07:49:30.795Z,1.67
2018-03-29T07:52:00.361Z,1.67
2018-03-29T07:54:28.732Z,1.74
2018-03-29T07:56:57.164Z,1.85
2018-03-29T07:59:26.418Z,1.83
2018-03-29T08:01:54.800Z,1.83
2018-03-29T08:04:23.377Z,1.68
2018-03-29T08:06:52.533Z,1.70
2018-03-29T08:09:21.047Z,1.68
2018-03-29T08:11:49.436Z,1.78
2018-03-29T08:14:17.840Z,1.77
2018-03-29T08:16:47.633Z,1.83
2018-03-29T08:19:16.005Z,1.80
2018-03-29T08:21:44.579Z,1.75
2018-03-29T08:24:13.140Z,1.72
2018-03-29T08:26:41.930Z,1.60
2018-03-29T08:29:10.876Z,1.76
2018-03-29T08:31:39.241Z,1.80
2018-03-29T08:34:07.827Z,1.90
2018-03-29T08:36:36.371Z,1.85
2018-03-29T08:39:04.763Z,1.93
2018-03-29T08:41:33.251Z,1.99
2018-03-29T08:44:02.568Z,2.01
2018-03-29T08:46:30.916Z,2.02
2018-03-29T08:48:59.271Z,1.98
2018-03-29T08:51:28.055Z,1.96
2018-03-29T08:53:56.438Z,1.89
2018-03-29T08:56:24.818Z,1.92
2018-03-29T08:58:53.193Z,2.05
2018-03-29T09:01:21.569Z,2.10
2018-03-29T09:03:49.971Z,1.89
2018-03-29T09:06:19.140Z,1.90
2018-03-29T09:08:48.609Z,1.97
2018-03-29T09:11:16.985Z,1.94
2018-03-29T09:13:46.784Z,1.96
2018-03-29T09:16:15.364Z,1.97
2018-03-29T09:18:43.805Z,1.86
2018-03-29T09:21:12.695Z,1.88
2018-03-29T09:23:41.049Z,1.91
2018-03-29T09:26:09.452Z,2.01
2018-03-29T09:28:38.213Z,2.02
2018-03-29T09:31:06.555Z,2.14
2018-03-29T09:33:34.989Z,1.99
2018-03-29T09:36:04.171Z,1.90
2018-03-29T09:38:33.605Z,2.03
2018-03-29T09:41:01.975Z,2.22
2018-03-29T09:43:30.411Z,2.24
2018-03-29T09:45:59.694Z,2.26
2018-03-29T09:48:28.199Z,2.25
2018-03-29T09:50:56.598Z,2.22
2018-03-29T09:53:24.986Z,2.18
2018-03-29T09:55:53.336Z,2.09
2018-03-29T09:58:22.867Z,2.13
2018-03-29T10:00:52.264Z,2.20
2018-03-29T10:03:22.914Z,2.34
2018-03-29T10:05:51.675Z,2.59
2018-03-29T10:08:20.202Z,2.25
2018-03-29T10:10:48.992Z,2.19
2018-03-29T10:13:17.512Z,2.35
2018-03-29T10:15:46.086Z,2.76
2018-03-29T10:18:15.202Z,2.41
2018-03-29T10:20:43.901Z,2.47
2018-03-29T10:23:12.659Z,2.66
2018-03-29T10:25:41.291Z,2.75
2018-03-29T10:28:13.877Z,2.54
2018-03-29T10:30:42.458Z,2.61
2018-03-29T10:33:10.913Z,2.62
2018-03-29T10:35:40.757Z,2.67
2018-03-29T10:38:09.104Z,2.66
2018-03-29T10:40:37.457Z,2.54
2018-03-29T10:43:05.853Z,2.44
2018-03-29T10:45:34.235Z,2.30
2018-03-29T10:48:02.597Z,2.23
2018-03-29T10:50:31.745Z,2.33
2018-03-29T10:53:00.130Z,2.27
2018-03-29T10:55:28.465Z,2.24
2018-03-29T10:57:57.437Z,2.39
2018-03-29T11:00:25.813Z,2.27
2018-03-29T11:02:54.258Z,2.25
2018-03-29T11:05:23.150Z,2.32
2018-03-29T11:07:52.522Z,2.33
2018-03-29T11:10:20.968Z,2.38
2018-03-29T11:12:49.858Z,2.38
2018-03-29T11:15:18.470Z,2.28
2018-03-29T11:17:46.988Z,2.19
2018-03-29T11:20:15.690Z,2.28
2018-03-29T11:22:44.086Z,2.34
2018-03-29T11:25:12.569Z,2.22
2018-03-29T11:27:41.241Z,2.36
2018-03-29T11:30:09.596Z,2.62
2018-03-29T11:32:38.900Z,2.79
2018-03-29T11:35:07.326Z,2.84
2018-03-29T11:37:35.696Z,2.79
2018-03-29T11:40:04.059Z,2.74
2018-03-29T11:42:32.580Z,2.71
2018-03-29T11:45:01.145Z,2.70
2018-03-29T11:47:29.475Z,2.64
2018-03-29T11:49:57.994Z,2.43
2018-03-29T11:52:26.355Z,2.28
2018-03-29T11:54:54.749Z,2.37
2018-03-29T11:57:24.714Z,2.43
2018-03-29T11:59:53.292Z,2.30
2018-03-29T12:02:21.847Z,2.28
2018-03-29T12:04:50.247Z,2.38
2018-03-29T12:07:18.685Z,2.53
2018-03-29T12:09:47.438Z,2.69
2018-03-29T12:12:16.017Z,2.86
2018-03-29T12:14:44.409Z,3.03
2018-03-29T12:17:12.939Z,3.32
2018-03-29T12:19:41.634Z,2.93
2018-03-29T12:22:10.156Z,2.91
2018-03-29T12:24:39.912Z,3.03
2018-03-29T12:27:08.702Z,3.11
2018-03-29T12:29:38.180Z,3.23
2018-03-29T12:32:06.833Z,3.32
2018-03-29T12:34:36.535Z,3.18
2018-03-29T12:37:04.974Z,2.99
2018-03-29T12:39:33.929Z,2.79
2018-03-29T12:42:04.178Z,2.65
2018-03-29T12:44:32.897Z,2.80
2018-03-29T12:47:01.504Z,2.96
2018-03-29T12:49:30.273Z,2.93
2018-03-29T12:51:58.742Z,2.78
2018-03-29T12:54:39.050Z,2.65
2018-03-29T12:57:19.698Z,2.58
2018-03-29T12:59:48.314Z,2.62
2018-03-29T13:02:18.136Z,2.70
2018-03-29T13:04:46.834Z,2.45
2018-03-29T13:07:16.497Z,2.60
2018-03-29T13:09:45.572Z,2.70
2018-03-29T13:12:14.309Z,2.69
2018-03-29T13:14:43.958Z,2.56
2018-03-29T13:17:12.699Z,2.47
2018-03-29T13:19:42.276Z,2.55
2018-03-29T13:22:10.885Z,2.57
2018-03-29T13:24:39.440Z,2.61
2018-03-29T13:27:07.818Z,2.38
2018-03-29T13:29:37.058Z,2.55
2018-03-29T13:32:05.634Z,2.42
2018-03-29T13:34:34.052Z,2.25
2018-03-29T13:37:02.504Z,2.29
2018-03-29T13:39:30.854Z,2.25
2018-03-29T13:41:59.250Z,2.09
2018-03-29T13:44:27.647Z,2.02
2018-03-29T13:46:56.036Z,2.03
2018-03-29T13:49:24.406Z,2.07
2018-03-29T13:51:54.559Z,2.01
2018-03-29T13:54:23.039Z,2.11
2018-03-29T13:56:51.516Z,2.18
2018-03-29T13:59:20.921Z,2.37
2018-03-29T14:01:50.144Z,2.30
2018-03-29T14:04:18.559Z,2.28
2018-03-29T14:06:47.255Z,2.31
2018-03-29T14:09:15.903Z,2.53
2018-03-29T14:11:44.345Z,2.56
2018-03-29T14:14:12.999Z,2.26
2018-03-29T14:16:41.813Z,2.35
2018-03-29T14:19:12.724Z,2.58
2018-03-29T14:21:41.156Z,2.52
2018-03-29T14:24:09.642Z,2.55
2018-03-29T14:26:38.081Z,2.46
2018-03-29T14:29:08.148Z,2.52
2018-03-29T14:31:37.719Z,2.71
2018-03-29T14:34:06.303Z,2.56
2018-03-29T14:36:34.906Z,2.46
2018-03-29T14:39:05.691Z,2.41
2018-03-29T14:41:35.300Z,2.54
2018-03-29T14:44:04.351Z,2.35
2018-03-29T14:46:33.771Z,2.43
2018-03-29T14:49:02.557Z,2.28
2018-03-29T14:51:31.761Z,2.19
2018-03-29T14:54:00.537Z,2.14
2018-03-29T14:56:29.147Z,2.24
2018-03-29T14:58:57.882Z,2.17
2018-03-29T15:01:26.773Z,2.00
2018-03-29T15:03:55.592Z,2.01
2018-03-29T15:06:25.066Z,2.02
2018-03-29T15:08:53.971Z,2.11
2018-03-29T15:11:22.830Z,2.05
2018-03-29T15:13:52.595Z,2.01
2018-03-29T15:16:21.976Z,2.12
2018-03-29T15:18:51.125Z,1.99
2018-03-29T15:21:21.798Z,1.91
2018-03-29T15:23:51.573Z,1.89
2018-03-29T15:26:20.041Z,1.99
2018-03-29T15:28:49.808Z,1.94
2018-03-29T15:31:18.786Z,2.02
2018-03-29T15:33:47.912Z,2.04
2018-03-29T15:36:16.813Z,2.03
2018-03-29T15:38:45.638Z,2.06
2018-03-29T15:41:14.192Z,1.94
2018-03-29T15:43:45.018Z,1.76
2018-03-29T15:46:15.793Z,1.90
2018-03-29T15:48:44.354Z,1.88
2018-03-29T15:51:12.698Z,1.91
2018-03-29T15:53:41.423Z,1.75
2018-03-29T15:56:09.925Z,1.78
2018-03-29T15:58:38.364Z,1.73
2018-03-29T16:01:06.764Z,1.90
2018-03-29T16:03:36.086Z,2.03
2018-03-29T16:06:05.327Z,1.88
2018-03-29T16:08:33.935Z,1.98
2018-03-29T16:11:03.690Z,2.01
2018-03-29T16:13:32.251Z,1.95
2018-03-29T16:16:01.006Z,1.67
2018-03-29T16:18:30.874Z,1.64
2018-03-29T16:20:59.425Z,1.65
2018-03-29T16:23:28.180Z,1.68
2018-03-29T16:25:56.794Z,1.70
2018-03-29T16:28:25.919Z,1.71
2018-03-29T16:30:54.634Z,1.76
2018-03-29T16:33:23.790Z,1.67
2018-03-29T16:35:52.529Z,1.64
2018-03-29T16:38:21.291Z,1.65
2018-03-29T16:40:49.705Z,1.65
2018-03-29T16:43:18.936Z,1.61
2018-03-29T16:45:47.308Z,1.60
2018-03-29T16:48:16.355Z,1.67
2018-03-29T16:50:44.699Z,1.61
2018-03-29T16:53:13.823Z,1.63
2018-03-29T16:55:42.455Z,1.58
2018-03-29T16:58:10.989Z,1.61
2018-03-29T17:00:39.363Z,1.62
2018-03-29T17:03:07.828Z,1.71
2018-03-29T17:05:36.547Z,1.76
2018-03-29T17:08:05.000Z,1.76
2018-03-29T17:10:33.947Z,1.82
2018-03-29T17:13:02.784Z,1.74
2018-03-29T17:15:31.283Z,1.74
2018-03-29T17:18:00.087Z,1.65
2018-03-29T17:20:28.520Z,1.59
2018-03-29T17:22:57.256Z,1.57
2018-03-29T17:25:26.040Z,1.65
2018-03-29T17:27:56.159Z,1.65
2018-03-29T17:30:24.933Z,1.58
2018-03-29T17:32:54.129Z,1.63
2018-03-29T17:35:22.732Z,1.58
2018-03-29T17:37:51.310Z,1.57
2018-03-29T17:40:20.002Z,1.59
2018-03-29T17:42:48.394Z,1.48
2018-03-29T17:45:16.880Z,1.55
2018-03-29T17:47:45.523Z,1.49
2018-03-29T17:50:13.982Z,1.48
2018-03-29T17:52:42.407Z,1.40
2018-03-29T17:55:10.923Z,1.37
2018-03-29T17:57:39.344Z,1.35
2018-03-29T18:00:07.999Z,1.40
2018-03-29T18:02:37.257Z,1.48
2018-03-29T18:05:05.872Z,1.49
2018-03-29T18:07:34.305Z,1.47
2018-03-29T18:10:02.969Z,1.45
2018-03-29T18:12:31.679Z,1.51
2018-03-29T18:15:00.481Z,1.50
2018-03-29T18:17:29.097Z,1.59
2018-03-29T18:19:57.854Z,1.57
2018-03-29T18:22:26.522Z,1.52
2018-03-29T18:24:55.449Z,1.59
2018-03-29T18:27:24.296Z,1.60
2018-03-29T18:29:52.995Z,1.51
2018-03-29T18:32:22.380Z,1.52
2018-03-29T18:34:51.172Z,1.59
2018-03-29T18:37:19.600Z,1.60
2018-03-29T18:39:48.211Z,1.60
2018-03-29T18:42:16.613Z,1.56
2018-03-29T18:44:44.990Z,1.53
2018-03-29T18:47:13.508Z,1.54
2018-03-29T18:49:42.009Z,1.53
2018-03-29T18:52:10.408Z,1.50
2018-03-29T18:54:39.555Z,1.49
2018-03-29T18:57:08.004Z,1.61
2018-03-29T18:59:36.515Z,1.60
2018-03-29T19:02:05.106Z,1.57
2018-03-29T19:04:34.634Z,1.65
2018-03-29T19:07:03.419Z,1.69
2018-03-29T19:09:31.995Z,1.60
2018-03-29T19:12:00.521Z,1.61
2018-03-29T19:14:28.992Z,1.69
2018-03-29T19:16:58.037Z,1.67
2018-03-29T19:19:26.913Z,1.72
2018-03-29T19:21:55.535Z,1.71
2018-03-29T19:24:24.808Z,1.63
2018-03-29T19:26:53.578Z,1.63
2018-03-29T19:29:22.252Z,1.58
2018-03-29T19:31:51.792Z,1.56
2018-03-29T19:34:21.331Z,1.59
2018-03-29T19:36:49.958Z,1.59
2018-03-29T19:39:18.645Z,1.54
2018-03-29T19:41:47.149Z,1.58
2018-03-29T19:44:15.705Z,1.57
2018-03-29T19:46:44.305Z,1.67
2018-03-29T19:49:12.733Z,1.65
2018-03-29T19:51:41.116Z,1.64
2018-03-29T19:54:09.660Z,1.59
2018-03-29T19:56:38.229Z,1.63
2018-03-29T19:59:07.108Z,1.63
2018-03-29T20:01:36.461Z,1.69
2018-03-29T20:04:05.132Z,1.73
2018-03-29T20:06:33.824Z,1.64
2018-03-29T20:09:02.870Z,1.69
2018-03-29T20:11:31.660Z,1.74
2018-03-29T20:14:00.933Z,1.64
2018-03-29T20:16:30.182Z,1.62
2018-03-29T20:18:59.463Z,1.62
2018-03-29T20:21:28.801Z,1.61
2018-03-29T20:23:58.986Z,1.54
2018-03-29T20:26:28.719Z,1.54
2018-03-29T20:28:57.915Z,1.50
2018-03-29T20:31:28.507Z,1.50
2018-03-29T20:34:00.280Z,1.54
2018-03-29T20:36:30.094Z,1.49
2018-03-29T20:38:59.586Z,1.52
2018-03-29T20:41:28.293Z,1.55
2018-03-29T20:43:57.622Z,1.59
2018-03-29T20:46:26.490Z,1.54
2018-03-29T20:48:55.987Z,1.55
2018-03-29T20:51:25.634Z,1.64
2018-03-29T20:53:54.647Z,1.69
2018-03-29T20:56:23.920Z,1.79
2018-03-29T20:58:53.799Z,1.84
2018-03-29T21:01:22.854Z,1.69
2018-03-29T21:03:52.609Z,1.80
2018-03-29T21:06:26.293Z,1.82
2018-03-29T21:08:58.673Z,1.81
2018-03-29T21:11:33.351Z,1.87
2018-03-29T21:14:02.316Z,1.84
2018-03-29T21:16:32.022Z,1.86
2018-03-29T21:19:01.604Z,1.95
2018-03-29T21:21:30.511Z,1.93
2018-03-29T21:23:59.878Z,1.90
2018-03-29T21:26:28.648Z,1.78
2018-03-29T21:28:57.696Z,1.81
2018-03-29T21:31:26.543Z,1.69
2018-03-29T21:33:55.542Z,1.61
2018-03-29T21:36:28.394Z,1.68
2018-03-29T21:38:57.972Z,1.67
2018-03-29T21:41:29.359Z,1.61
2018-03-29T21:43:59.800Z,1.54
2018-03-29T21:46:28.947Z,1.56
2018-03-29T21:48:57.782Z,1.60
2018-03-29T21:51:30.027Z,1.68
2018-03-29T21:53:58.779Z,1.70
2018-03-29T21:56:28.090Z,1.77
2018-03-29T21:58:56.727Z,1.81
2018-03-29T22:01:26.254Z,1.83
2018-03-29T22:03:55.319Z,1.82
2018-03-29T22:06:24.143Z,1.91
2018-03-29T22:08:52.837Z,1.99
2018-03-29T22:11:22.483Z,2.08
2018-03-29T22:13:51.477Z,2.10
2018-03-29T22:16:19.956Z,1.87
2018-03-29T22:18:48.507Z,1.75
2018-03-29T22:21:17.784Z,1.81
2018-03-29T22:23:46.314Z,1.90
2018-03-29T22:26:14.736Z,1.95
2018-03-29T22:28:43.494Z,1.97
2018-03-29T22:31:12.206Z,1.82
2018-03-29T22:33:40.743Z,1.74
2018-03-29T22:36:09.506Z,1.69
2018-03-29T22:38:37.969Z,1.66
2018-03-29T22:41:06.417Z,1.68
2018-03-29T22:43:34.844Z,1.68
2018-03-29T22:46:03.290Z,1.61
2018-03-29T22:48:31.932Z,1.61
2018-03-29T22:51:01.570Z,1.73
2018-03-29T22:53:30.080Z,1.74
2018-03-29T22:55:58.430Z,1.82
2018-03-29T22:58:27.044Z,1.84
2018-03-29T23:00:56.480Z,1.91
2018-03-29T23:03:24.819Z,1.93
2018-03-29T23:05:53.513Z,1.97
2018-03-29T23:08:22.379Z,1.94
2018-03-29T23:10:50.861Z,2.00
2018-03-29T23:13:19.264Z,1.98
2018-03-29T23:15:47.582Z,2.02
2018-03-29T23:18:15.926Z,2.07
2018-03-29T23:20:45.157Z,2.13
2018-03-29T23:23:13.527Z,2.11
2018-03-29T23:25:42.007Z,2.14
2018-03-29T23:28:11.813Z,2.02
2018-03-29T23:30:40.186Z,1.88
2018-03-29T23:33:08.867Z,1.91
2018-03-29T23:35:37.295Z,1.86
2018-03-29T23:38:05.687Z,1.81
2018-03-29T23:40:34.098Z,1.64
2018-03-29T23:43:02.512Z,1.62
2018-03-29T23:45:31.102Z,1.65
2018-03-29T23:48:00.046Z,1.65
2018-03-29T23:50:28.752Z,1.63
2018-03-29T23:52:57.533Z,1.60
2018-03-29T23:55:26.066Z,1.56
2018-03-29T23:58:06.946Z,1.55
